sensor_id;sensor_type;location;lat;lon;timestamp;P1;P2;P0
47810;PMS5003;33575;52.600;7.318;2023-02-19T00:01:38;29;27;
47810;PMS5003;33575;52.600;7.318;2023-02-19T00:04:09;36;32;
47810;PMS5003;33575;52.600;7.318;2023-02-19T00:06:38;31;29;
47810;PMS5003;33575;52.600;7.318;2023-02-19T00:09:09;26;24;
47810;PMS5003;33575;52.600;7.318;2023-02-19T00:11:40;28;27;
47810;PMS5003;33575;52.600;7.318;2023-02-19T00:14:10;31;29;
47810;PMS5003;33575;52.600;7.318;2023-02-19T00:16:41;32;30;
47810;PMS5003;33575;52.600;7.318;2023-02-19T00:19:12;27;27;
47810;PMS5003;33575;52.600;7.318;2023-02-19T00:21:42;30;28;
47810;PMS5003;33575;52.600;7.318;2023-02-19T00:24:12;28;25;
47810;PMS5003;33575;52.600;7.318;2023-02-19T00:26:42;30;29;
47810;PMS5003;33575;52.600;7.318;2023-02-19T00:29:13;33;30;
47810;PMS5003;33575;52.600;7.318;2023-02-19T00:31:43;31;26;
47810;PMS5003;33575;52.600;7.318;2023-02-19T00:34:13;24;20;
47810;PMS5003;33575;52.600;7.318;2023-02-19T00:36:43;29;27;
47810;PMS5003;33575;52.600;7.318;2023-02-19T00:39:14;27;23;
47810;PMS5003;33575;52.600;7.318;2023-02-19T00:41:44;28;25;
47810;PMS5003;33575;52.600;7.318;2023-02-19T00:44:14;27;24;
47810;PMS5003;33575;52.600;7.318;2023-02-19T00:46:45;23;21;
47810;PMS5003;33575;52.600;7.318;2023-02-19T00:49:17;20;18;
47810;PMS5003;33575;52.600;7.318;2023-02-19T00:51:46;19;15;
47810;PMS5003;33575;52.600;7.318;2023-02-19T00:54:16;17;17;
47810;PMS5003;33575;52.600;7.318;2023-02-19T00:56:46;16;15;
47810;PMS5003;33575;52.600;7.318;2023-02-19T00:59:17;15;14;
47810;PMS5003;33575;52.600;7.318;2023-02-19T01:01:47;17;16;
47810;PMS5003;33575;52.600;7.318;2023-02-19T01:04:17;16;15;
47810;PMS5003;33575;52.600;7.318;2023-02-19T01:06:48;16;13;
47810;PMS5003;33575;52.600;7.318;2023-02-19T01:09:18;16;15;
47810;PMS5003;33575;52.600;7.318;2023-02-19T01:11:48;16;15;
47810;PMS5003;33575;52.600;7.318;2023-02-19T01:14:19;18;14;
47810;PMS5003;33575;52.600;7.318;2023-02-19T01:16:49;16;14;
47810;PMS5003;33575;52.600;7.318;2023-02-19T01:19:19;17;16;
47810;PMS5003;33575;52.600;7.318;2023-02-19T01:21:50;18;18;
47810;PMS5003;33575;52.600;7.318;2023-02-19T01:24:20;18;16;
47810;PMS5003;33575;52.600;7.318;2023-02-19T01:26:50;20;18;
47810;PMS5003;33575;52.600;7.318;2023-02-19T01:29:20;16;15;
47810;PMS5003;33575;52.600;7.318;2023-02-19T01:31:51;17;15;
47810;PMS5003;33575;52.600;7.318;2023-02-19T01:34:21;19;18;
47810;PMS5003;33575;52.600;7.318;2023-02-19T01:36:52;19;18;
47810;PMS5003;33575;52.600;7.318;2023-02-19T01:39:22;17;17;
47810;PMS5003;33575;52.600;7.318;2023-02-19T01:41:53;19;17;
47810;PMS5003;33575;52.600;7.318;2023-02-19T01:46:54;26;25;
47810;PMS5003;33575;52.600;7.318;2023-02-19T01:49:25;23;20;
47810;PMS5003;33575;52.600;7.318;2023-02-19T01:51:56;25;23;
47810;PMS5003;33575;52.600;7.318;2023-02-19T01:54:26;26;24;
47810;PMS5003;33575;52.600;7.318;2023-02-19T01:56:56;28;28;
47810;PMS5003;33575;52.600;7.318;2023-02-19T01:59:26;31;28;
47810;PMS5003;33575;52.600;7.318;2023-02-19T02:01:57;27;24;
47810;PMS5003;33575;52.600;7.318;2023-02-19T02:04:28;33;30;
47810;PMS5003;33575;52.600;7.318;2023-02-19T02:07:03;30;28;
47810;PMS5003;33575;52.600;7.318;2023-02-19T02:09:29;35;33;
47810;PMS5003;33575;52.600;7.318;2023-02-19T02:11:59;34;31;
47810;PMS5003;33575;52.600;7.318;2023-02-19T02:14:32;33;30;
47810;PMS5003;33575;52.600;7.318;2023-02-19T02:17:04;36;34;
47810;PMS5003;33575;52.600;7.318;2023-02-19T02:19:39;28;26;
47810;PMS5003;33575;52.600;7.318;2023-02-19T02:22:05;27;25;
47810;PMS5003;33575;52.600;7.318;2023-02-19T02:24:36;33;31;
47810;PMS5003;33575;52.600;7.318;2023-02-19T02:27:07;28;25;
47810;PMS5003;33575;52.600;7.318;2023-02-19T02:32:04;27;25;
47810;PMS5003;33575;52.600;7.318;2023-02-19T02:34:35;28;26;
47810;PMS5003;33575;52.600;7.318;2023-02-19T02:37:04;24;23;
47810;PMS5003;33575;52.600;7.318;2023-02-19T02:39:35;27;26;
47810;PMS5003;33575;52.600;7.318;2023-02-19T02:42:08;24;20;
47810;PMS5003;33575;52.600;7.318;2023-02-19T02:44:40;25;23;
47810;PMS5003;33575;52.600;7.318;2023-02-19T02:47:07;23;20;
47810;PMS5003;33575;52.600;7.318;2023-02-19T02:49:38;23;20;
47810;PMS5003;33575;52.600;7.318;2023-02-19T02:52:08;25;19;
47810;PMS5003;33575;52.600;7.318;2023-02-19T02:54:38;22;19;
47810;PMS5003;33575;52.600;7.318;2023-02-19T02:57:10;28;26;
47810;PMS5003;33575;52.600;7.318;2023-02-19T02:59:40;19;17;
47810;PMS5003;33575;52.600;7.318;2023-02-19T03:02:11;17;16;
47810;PMS5003;33575;52.600;7.318;2023-02-19T03:04:43;22;20;
47810;PMS5003;33575;52.600;7.318;2023-02-19T03:07:11;21;19;
47810;PMS5003;33575;52.600;7.318;2023-02-19T03:09:42;17;16;
47810;PMS5003;33575;52.600;7.318;2023-02-19T03:12:13;20;20;
47810;PMS5003;33575;52.600;7.318;2023-02-19T03:14:45;20;18;
47810;PMS5003;33575;52.600;7.318;2023-02-19T03:17:15;18;16;
47810;PMS5003;33575;52.600;7.318;2023-02-19T03:19:45;16;15;
47810;PMS5003;33575;52.600;7.318;2023-02-19T03:22:15;18;17;
47810;PMS5003;33575;52.600;7.318;2023-02-19T03:24:46;21;18;
47810;PMS5003;33575;52.600;7.318;2023-02-19T03:27:16;17;14;
47810;PMS5003;33575;52.600;7.318;2023-02-19T03:29:46;14;13;
47810;PMS5003;33575;52.600;7.318;2023-02-19T03:32:17;14;14;
47810;PMS5003;33575;52.600;7.318;2023-02-19T03:34:47;13;12;
47810;PMS5003;33575;52.600;7.318;2023-02-19T03:37:19;19;17;
47810;PMS5003;33575;52.600;7.318;2023-02-19T03:39:48;16;14;
47810;PMS5003;33575;52.600;7.318;2023-02-19T03:42:21;13;13;
47810;PMS5003;33575;52.600;7.318;2023-02-19T03:44:52;16;13;
47810;PMS5003;33575;52.600;7.318;2023-02-19T03:47:20;13;13;
47810;PMS5003;33575;52.600;7.318;2023-02-19T03:49:51;12;12;
47810;PMS5003;33575;52.600;7.318;2023-02-19T03:52:22;13;12;
47810;PMS5003;33575;52.600;7.318;2023-02-19T03:54:52;15;13;
47810;PMS5003;33575;52.600;7.318;2023-02-19T03:57:22;14;13;
47810;PMS5003;33575;52.600;7.318;2023-02-19T03:59:52;19;18;
47810;PMS5003;33575;52.600;7.318;2023-02-19T04:02:25;11;11;
47810;PMS5003;33575;52.600;7.318;2023-02-19T04:04:55;14;12;
47810;PMS5003;33575;52.600;7.318;2023-02-19T04:07:24;12;11;
47810;PMS5003;33575;52.600;7.318;2023-02-19T04:09:55;12;11;
47810;PMS5003;33575;52.600;7.318;2023-02-19T04:12:25;13;12;
47810;PMS5003;33575;52.600;7.318;2023-02-19T04:14:57;15;12;
47810;PMS5003;33575;52.600;7.318;2023-02-19T04:17:27;10;9;
47810;PMS5003;33575;52.600;7.318;2023-02-19T04:19:57;12;10;
47810;PMS5003;33575;52.600;7.318;2023-02-19T04:22:27;10;10;
47810;PMS5003;33575;52.600;7.318;2023-02-19T04:24:58;9;9;
47810;PMS5003;33575;52.600;7.318;2023-02-19T04:27:28;9;7;
47810;PMS5003;33575;52.600;7.318;2023-02-19T04:29:59;10;10;
47810;PMS5003;33575;52.600;7.318;2023-02-19T04:32:30;12;11;
47810;PMS5003;33575;52.600;7.318;2023-02-19T04:35:00;9;9;
47810;PMS5003;33575;52.600;7.318;2023-02-19T04:37:31;10;8;
47810;PMS5003;33575;52.600;7.318;2023-02-19T04:40:02;13;10;
47810;PMS5003;33575;52.600;7.318;2023-02-19T04:42:32;11;11;
47810;PMS5003;33575;52.600;7.318;2023-02-19T04:45:03;13;12;
47810;PMS5003;33575;52.600;7.318;2023-02-19T04:47:33;10;10;
47810;PMS5003;33575;52.600;7.318;2023-02-19T04:50:04;10;9;
47810;PMS5003;33575;52.600;7.318;2023-02-19T04:52:35;5;5;
47810;PMS5003;33575;52.600;7.318;2023-02-19T04:55:06;5;5;
47810;PMS5003;33575;52.600;7.318;2023-02-19T04:57:36;2;2;
47810;PMS5003;33575;52.600;7.318;2023-02-19T05:00:07;1;1;
47810;PMS5003;33575;52.600;7.318;2023-02-19T05:02:37;1;1;
47810;PMS5003;33575;52.600;7.318;2023-02-19T05:05:08;3;3;
47810;PMS5003;33575;52.600;7.318;2023-02-19T05:07:39;2;2;
47810;PMS5003;33575;52.600;7.318;2023-02-19T05:10:09;4;3;
47810;PMS5003;33575;52.600;7.318;2023-02-19T05:12:40;3;3;
47810;PMS5003;33575;52.600;7.318;2023-02-19T05:15:11;4;4;
47810;PMS5003;33575;52.600;7.318;2023-02-19T05:17:42;4;4;
47810;PMS5003;33575;52.600;7.318;2023-02-19T05:20:12;2;2;
47810;PMS5003;33575;52.600;7.318;2023-02-19T05:22:43;4;3;
47810;PMS5003;33575;52.600;7.318;2023-02-19T05:25:14;2;1;
47810;PMS5003;33575;52.600;7.318;2023-02-19T05:27:44;3;3;
47810;PMS5003;33575;52.600;7.318;2023-02-19T05:30:15;3;3;
47810;PMS5003;33575;52.600;7.318;2023-02-19T05:32:46;3;3;
47810;PMS5003;33575;52.600;7.318;2023-02-19T05:35:16;4;4;
47810;PMS5003;33575;52.600;7.318;2023-02-19T05:37:47;3;3;
47810;PMS5003;33575;52.600;7.318;2023-02-19T05:40:18;5;4;
47810;PMS5003;33575;52.600;7.318;2023-02-19T05:42:48;4;4;
47810;PMS5003;33575;52.600;7.318;2023-02-19T05:45:19;2;2;
47810;PMS5003;33575;52.600;7.318;2023-02-19T05:47:50;2;2;
47810;PMS5003;33575;52.600;7.318;2023-02-19T05:50:21;2;2;
47810;PMS5003;33575;52.600;7.318;2023-02-19T05:52:51;1;1;
47810;PMS5003;33575;52.600;7.318;2023-02-19T05:55:22;0;0;
47810;PMS5003;33575;52.600;7.318;2023-02-19T05:57:53;1;1;
47810;PMS5003;33575;52.600;7.318;2023-02-19T06:00:23;2;2;
47810;PMS5003;33575;52.600;7.318;2023-02-19T06:02:54;3;2;
47810;PMS5003;33575;52.600;7.318;2023-02-19T06:05:25;5;5;
47810;PMS5003;33575;52.600;7.318;2023-02-19T06:07:55;5;5;
47810;PMS5003;33575;52.600;7.318;2023-02-19T06:10:26;9;8;
47810;PMS5003;33575;52.600;7.318;2023-02-19T06:12:57;7;7;
47810;PMS5003;33575;52.600;7.318;2023-02-19T06:15:28;8;8;
47810;PMS5003;33575;52.600;7.318;2023-02-19T06:17:58;6;6;
47810;PMS5003;33575;52.600;7.318;2023-02-19T06:20:29;7;7;
47810;PMS5003;33575;52.600;7.318;2023-02-19T06:23:00;9;9;
47810;PMS5003;33575;52.600;7.318;2023-02-19T06:25:31;12;12;
47810;PMS5003;33575;52.600;7.318;2023-02-19T06:28:01;20;20;
47810;PMS5003;33575;52.600;7.318;2023-02-19T06:33:03;32;32;
47810;PMS5003;33575;52.600;7.318;2023-02-19T06:35:33;19;17;
47810;PMS5003;33575;52.600;7.318;2023-02-19T06:38:04;24;24;
47810;PMS5003;33575;52.600;7.318;2023-02-19T06:40:35;6;6;
47810;PMS5003;33575;52.600;7.318;2023-02-19T06:43:06;7;6;
47810;PMS5003;33575;52.600;7.318;2023-02-19T06:45:36;22;21;
47810;PMS5003;33575;52.600;7.318;2023-02-19T06:48:06;54;54;
47810;PMS5003;33575;52.600;7.318;2023-02-19T06:50:37;18;18;
47810;PMS5003;33575;52.600;7.318;2023-02-19T06:53:07;17;17;
47810;PMS5003;33575;52.600;7.318;2023-02-19T06:55:37;16;16;
47810;PMS5003;33575;52.600;7.318;2023-02-19T06:58:08;31;31;
47810;PMS5003;33575;52.600;7.318;2023-02-19T07:00:38;5;5;
47810;PMS5003;33575;52.600;7.318;2023-02-19T07:03:09;5;5;
47810;PMS5003;33575;52.600;7.318;2023-02-19T07:05:40;6;5;
47810;PMS5003;33575;52.600;7.318;2023-02-19T07:08:11;3;3;
47810;PMS5003;33575;52.600;7.318;2023-02-19T07:10:41;5;4;
47810;PMS5003;33575;52.600;7.318;2023-02-19T07:13:12;4;3;
47810;PMS5003;33575;52.600;7.318;2023-02-19T07:15:43;3;3;
47810;PMS5003;33575;52.600;7.318;2023-02-19T07:18:14;5;4;
47810;PMS5003;33575;52.600;7.318;2023-02-19T07:20:44;4;3;
47810;PMS5003;33575;52.600;7.318;2023-02-19T07:23:15;3;3;
47810;PMS5003;33575;52.600;7.318;2023-02-19T07:25:46;6;5;
47810;PMS5003;33575;52.600;7.318;2023-02-19T07:28:16;7;6;
47810;PMS5003;33575;52.600;7.318;2023-02-19T07:30:47;6;6;
47810;PMS5003;33575;52.600;7.318;2023-02-19T07:33:18;12;10;
47810;PMS5003;33575;52.600;7.318;2023-02-19T07:35:49;27;26;
47810;PMS5003;33575;52.600;7.318;2023-02-19T07:38:20;17;17;
47810;PMS5003;33575;52.600;7.318;2023-02-19T07:40:50;17;16;
47810;PMS5003;33575;52.600;7.318;2023-02-19T07:43:20;7;7;
47810;PMS5003;33575;52.600;7.318;2023-02-19T07:45:51;7;7;
47810;PMS5003;33575;52.600;7.318;2023-02-19T07:48:22;8;7;
47810;PMS5003;33575;52.600;7.318;2023-02-19T07:50:53;5;5;
47810;PMS5003;33575;52.600;7.318;2023-02-19T07:53:23;5;5;
47810;PMS5003;33575;52.600;7.318;2023-02-19T07:55:57;6;6;
47810;PMS5003;33575;52.600;7.318;2023-02-19T07:58:25;6;6;
47810;PMS5003;33575;52.600;7.318;2023-02-19T08:00:55;8;7;
47810;PMS5003;33575;52.600;7.318;2023-02-19T08:03:26;11;11;
47810;PMS5003;33575;52.600;7.318;2023-02-19T08:05:57;7;7;
47810;PMS5003;33575;52.600;7.318;2023-02-19T08:08:28;8;8;
47810;PMS5003;33575;52.600;7.318;2023-02-19T08:10:59;32;31;
47810;PMS5003;33575;52.600;7.318;2023-02-19T08:13:29;83;81;
47810;PMS5003;33575;52.600;7.318;2023-02-19T08:16:08;27;27;
47810;PMS5003;33575;52.600;7.318;2023-02-19T08:18:30;17;16;
47810;PMS5003;33575;52.600;7.318;2023-02-19T08:21:01;12;12;
47810;PMS5003;33575;52.600;7.318;2023-02-19T08:23:31;11;10;
47810;PMS5003;33575;52.600;7.318;2023-02-19T08:26:02;9;9;
47810;PMS5003;33575;52.600;7.318;2023-02-19T08:28:32;8;8;
47810;PMS5003;33575;52.600;7.318;2023-02-19T08:31:04;6;6;
47810;PMS5003;33575;52.600;7.318;2023-02-19T08:33:34;7;7;
47810;PMS5003;33575;52.600;7.318;2023-02-19T08:36:06;6;6;
47810;PMS5003;33575;52.600;7.318;2023-02-19T08:38:36;9;9;
47810;PMS5003;33575;52.600;7.318;2023-02-19T08:41:06;25;25;
47810;PMS5003;33575;52.600;7.318;2023-02-19T08:43:37;22;22;
47810;PMS5003;33575;52.600;7.318;2023-02-19T08:46:08;13;12;
47810;PMS5003;33575;52.600;7.318;2023-02-19T08:48:38;8;8;
47810;PMS5003;33575;52.600;7.318;2023-02-19T08:51:10;12;12;
47810;PMS5003;33575;52.600;7.318;2023-02-19T08:53:40;7;6;
47810;PMS5003;33575;52.600;7.318;2023-02-19T08:56:11;7;7;
47810;PMS5003;33575;52.600;7.318;2023-02-19T08:58:41;8;6;
47810;PMS5003;33575;52.600;7.318;2023-02-19T09:01:13;6;5;
47810;PMS5003;33575;52.600;7.318;2023-02-19T09:03:42;7;6;
47810;PMS5003;33575;52.600;7.318;2023-02-19T09:06:14;57;28;
47810;PMS5003;33575;52.600;7.318;2023-02-19T09:08:44;5;5;
47810;PMS5003;33575;52.600;7.318;2023-02-19T09:11:15;5;3;
47810;PMS5003;33575;52.600;7.318;2023-02-19T09:13:45;7;7;
47810;PMS5003;33575;52.600;7.318;2023-02-19T09:16:16;6;5;
47810;PMS5003;33575;52.600;7.318;2023-02-19T09:18:47;4;4;
47810;PMS5003;33575;52.600;7.318;2023-02-19T09:21:17;11;10;
47810;PMS5003;33575;52.600;7.318;2023-02-19T09:23:48;6;5;
47810;PMS5003;33575;52.600;7.318;2023-02-19T09:26:19;4;4;
47810;PMS5003;33575;52.600;7.318;2023-02-19T09:28:50;4;4;
47810;PMS5003;33575;52.600;7.318;2023-02-19T09:31:20;6;6;
47810;PMS5003;33575;52.600;7.318;2023-02-19T09:33:51;5;5;
47810;PMS5003;33575;52.600;7.318;2023-02-19T09:36:22;4;4;
47810;PMS5003;33575;52.600;7.318;2023-02-19T09:38:52;4;4;
47810;PMS5003;33575;52.600;7.318;2023-02-19T09:41:25;5;5;
47810;PMS5003;33575;52.600;7.318;2023-02-19T09:43:54;4;4;
47810;PMS5003;33575;52.600;7.318;2023-02-19T09:46:27;4;4;
47810;PMS5003;33575;52.600;7.318;2023-02-19T09:48:56;5;5;
47810;PMS5003;33575;52.600;7.318;2023-02-19T09:51:26;4;4;
47810;PMS5003;33575;52.600;7.318;2023-02-19T09:53:56;3;3;
47810;PMS5003;33575;52.600;7.318;2023-02-19T09:56:27;4;3;
47810;PMS5003;33575;52.600;7.318;2023-02-19T09:58:58;4;4;
47810;PMS5003;33575;52.600;7.318;2023-02-19T10:01:29;3;3;
47810;PMS5003;33575;52.600;7.318;2023-02-19T10:03:59;6;6;
47810;PMS5003;33575;52.600;7.318;2023-02-19T10:06:31;6;4;
47810;PMS5003;33575;52.600;7.318;2023-02-19T10:09:04;5;5;
47810;PMS5003;33575;52.600;7.318;2023-02-19T10:11:31;4;3;
47810;PMS5003;33575;52.600;7.318;2023-02-19T10:14:03;5;5;
47810;PMS5003;33575;52.600;7.318;2023-02-19T10:16:32;5;5;
47810;PMS5003;33575;52.600;7.318;2023-02-19T10:19:03;7;6;
47810;PMS5003;33575;52.600;7.318;2023-02-19T10:21:34;4;4;
47810;PMS5003;33575;52.600;7.318;2023-02-19T10:24:05;5;5;
47810;PMS5003;33575;52.600;7.318;2023-02-19T10:26:35;5;5;
47810;PMS5003;33575;52.600;7.318;2023-02-19T10:29:06;6;5;
47810;PMS5003;33575;52.600;7.318;2023-02-19T10:31:37;8;6;
47810;PMS5003;33575;52.600;7.318;2023-02-19T10:34:15;4;4;
47810;PMS5003;33575;52.600;7.318;2023-02-19T10:36:38;6;6;
47810;PMS5003;33575;52.600;7.318;2023-02-19T10:41:39;6;5;
47810;PMS5003;33575;52.600;7.318;2023-02-19T10:44:12;4;4;
47810;PMS5003;33575;52.600;7.318;2023-02-19T10:46:40;4;4;
47810;PMS5003;33575;52.600;7.318;2023-02-19T10:49:16;5;5;
47810;PMS5003;33575;52.600;7.318;2023-02-19T10:51:41;5;4;
47810;PMS5003;33575;52.600;7.318;2023-02-19T10:54:14;3;3;
47810;PMS5003;33575;52.600;7.318;2023-02-19T10:56:43;10;6;
47810;PMS5003;33575;52.600;7.318;2023-02-19T10:59:17;6;6;
47810;PMS5003;33575;52.600;7.318;2023-02-19T11:04:16;2;2;
47810;PMS5003;33575;52.600;7.318;2023-02-19T11:06:45;3;3;
47810;PMS5003;33575;52.600;7.318;2023-02-19T11:09:22;5;4;
47810;PMS5003;33575;52.600;7.318;2023-02-19T11:11:48;5;4;
47810;PMS5003;33575;52.600;7.318;2023-02-19T11:14:18;6;5;
47810;PMS5003;33575;52.600;7.318;2023-02-19T11:16:48;3;3;
47810;PMS5003;33575;52.600;7.318;2023-02-19T11:19:21;4;4;
47810;PMS5003;33575;52.600;7.318;2023-02-19T11:21:49;3;3;
47810;PMS5003;33575;52.600;7.318;2023-02-19T11:24:22;6;6;
47810;PMS5003;33575;52.600;7.318;2023-02-19T11:26:50;4;3;
47810;PMS5003;33575;52.600;7.318;2023-02-19T11:29:21;3;3;
47810;PMS5003;33575;52.600;7.318;2023-02-19T11:31:52;4;4;
47810;PMS5003;33575;52.600;7.318;2023-02-19T11:34:24;5;4;
47810;PMS5003;33575;52.600;7.318;2023-02-19T11:36:53;4;4;
47810;PMS5003;33575;52.600;7.318;2023-02-19T11:39:24;5;4;
47810;PMS5003;33575;52.600;7.318;2023-02-19T11:41:57;3;3;
47810;PMS5003;33575;52.600;7.318;2023-02-19T11:44:27;1;1;
47810;PMS5003;33575;52.600;7.318;2023-02-19T11:46:57;4;4;
47810;PMS5003;33575;52.600;7.318;2023-02-19T11:49:27;4;4;
47810;PMS5003;33575;52.600;7.318;2023-02-19T11:52:00;4;4;
47810;PMS5003;33575;52.600;7.318;2023-02-19T11:54:35;3;3;
47810;PMS5003;33575;52.600;7.318;2023-02-19T11:57:00;5;4;
47810;PMS5003;33575;52.600;7.318;2023-02-19T11:59:29;6;5;
47810;PMS5003;33575;52.600;7.318;2023-02-19T12:02:04;2;2;
47810;PMS5003;33575;52.600;7.318;2023-02-19T12:04:33;4;3;
47810;PMS5003;33575;52.600;7.318;2023-02-19T12:07:03;3;3;
47810;PMS5003;33575;52.600;7.318;2023-02-19T12:09:37;4;3;
47810;PMS5003;33575;52.600;7.318;2023-02-19T12:12:06;4;4;
47810;PMS5003;33575;52.600;7.318;2023-02-19T12:14:38;2;2;
47810;PMS5003;33575;52.600;7.318;2023-02-19T12:17:04;2;2;
47810;PMS5003;33575;52.600;7.318;2023-02-19T12:19:37;2;2;
47810;PMS5003;33575;52.600;7.318;2023-02-19T12:22:10;4;3;
47810;PMS5003;33575;52.600;7.318;2023-02-19T12:27:09;0;0;
47810;PMS5003;33575;52.600;7.318;2023-02-19T12:29:40;8;7;
47810;PMS5003;33575;52.600;7.318;2023-02-19T12:32:11;3;3;
47810;PMS5003;33575;52.600;7.318;2023-02-19T12:34:43;2;1;
47810;PMS5003;33575;52.600;7.318;2023-02-19T12:37:12;3;3;
47810;PMS5003;33575;52.600;7.318;2023-02-19T12:39:40;2;2;
47810;PMS5003;33575;52.600;7.318;2023-02-19T12:42:10;3;3;
47810;PMS5003;33575;52.600;7.318;2023-02-19T12:44:41;4;4;
47810;PMS5003;33575;52.600;7.318;2023-02-19T12:47:13;6;4;
47810;PMS5003;33575;52.600;7.318;2023-02-19T12:49:41;6;6;
47810;PMS5003;33575;52.600;7.318;2023-02-19T12:52:12;4;4;
47810;PMS5003;33575;52.600;7.318;2023-02-19T12:54:42;10;9;
47810;PMS5003;33575;52.600;7.318;2023-02-19T12:57:14;19;17;
47810;PMS5003;33575;52.600;7.318;2023-02-19T12:59:45;11;10;
47810;PMS5003;33575;52.600;7.318;2023-02-19T13:02:15;4;4;
47810;PMS5003;33575;52.600;7.318;2023-02-19T13:04:46;2;2;
47810;PMS5003;33575;52.600;7.318;2023-02-19T13:07:16;2;2;
47810;PMS5003;33575;52.600;7.318;2023-02-19T13:09:46;3;3;
47810;PMS5003;33575;52.600;7.318;2023-02-19T13:12:18;2;2;
47810;PMS5003;33575;52.600;7.318;2023-02-19T13:14:47;3;3;
47810;PMS5003;33575;52.600;7.318;2023-02-19T13:17:20;2;2;
47810;PMS5003;33575;52.600;7.318;2023-02-19T13:19:49;2;2;
47810;PMS5003;33575;52.600;7.318;2023-02-19T13:22:21;3;3;
47810;PMS5003;33575;52.600;7.318;2023-02-19T13:24:49;2;2;
47810;PMS5003;33575;52.600;7.318;2023-02-19T13:27:29;3;2;
47810;PMS5003;33575;52.600;7.318;2023-02-19T13:29:59;3;3;
47810;PMS5003;33575;52.600;7.318;2023-02-19T13:32:26;1;1;
47810;PMS5003;33575;52.600;7.318;2023-02-19T13:34:56;2;2;
47810;PMS5003;33575;52.600;7.318;2023-02-19T13:37:22;2;2;
47810;PMS5003;33575;52.600;7.318;2023-02-19T13:39:53;3;3;
47810;PMS5003;33575;52.600;7.318;2023-02-19T13:42:24;4;3;
47810;PMS5003;33575;52.600;7.318;2023-02-19T13:45:00;4;4;
47810;PMS5003;33575;52.600;7.318;2023-02-19T13:49:55;2;2;
47810;PMS5003;33575;52.600;7.318;2023-02-19T13:57:27;4;3;
47810;PMS5003;33575;52.600;7.318;2023-02-19T13:59:58;3;2;
47810;PMS5003;33575;52.600;7.318;2023-02-19T14:02:30;4;3;
47810;PMS5003;33575;52.600;7.318;2023-02-19T14:05:00;3;3;
47810;PMS5003;33575;52.600;7.318;2023-02-19T14:07:34;3;3;
47810;PMS5003;33575;52.600;7.318;2023-02-19T14:10:00;2;1;
47810;PMS5003;33575;52.600;7.318;2023-02-19T14:12:32;5;5;
47810;PMS5003;33575;52.600;7.318;2023-02-19T14:17:37;5;3;
47810;PMS5003;33575;52.600;7.318;2023-02-19T14:20:08;4;4;
47810;PMS5003;33575;52.600;7.318;2023-02-19T14:25:05;1;1;
47810;PMS5003;33575;52.600;7.318;2023-02-19T14:27:36;2;2;
47810;PMS5003;33575;52.600;7.318;2023-02-19T14:30:08;0;0;
47810;PMS5003;33575;52.600;7.318;2023-02-19T14:32:37;1;0;
47810;PMS5003;33575;52.600;7.318;2023-02-19T14:37:37;0;0;
47810;PMS5003;33575;52.600;7.318;2023-02-19T14:40:08;2;1;
47810;PMS5003;33575;52.600;7.318;2023-02-19T14:42:39;1;0;
47810;PMS5003;33575;52.600;7.318;2023-02-19T14:45:09;1;1;
47810;PMS5003;33575;52.600;7.318;2023-02-19T14:47:40;2;2;
47810;PMS5003;33575;52.600;7.318;2023-02-19T14:50:11;0;0;
47810;PMS5003;33575;52.600;7.318;2023-02-19T14:52:42;1;1;
47810;PMS5003;33575;52.600;7.318;2023-02-19T14:55:13;0;0;
47810;PMS5003;33575;52.600;7.318;2023-02-19T14:57:42;0;0;
47810;PMS5003;33575;52.600;7.318;2023-02-19T15:02:43;1;1;
47810;PMS5003;33575;52.600;7.318;2023-02-19T15:05:14;2;1;
47810;PMS5003;33575;52.600;7.318;2023-02-19T15:07:44;1;1;
47810;PMS5003;33575;52.600;7.318;2023-02-19T15:10:15;1;1;
47810;PMS5003;33575;52.600;7.318;2023-02-19T15:12:46;0;0;
47810;PMS5003;33575;52.600;7.318;2023-02-19T15:15:17;1;1;
47810;PMS5003;33575;52.600;7.318;2023-02-19T15:17:47;1;1;
47810;PMS5003;33575;52.600;7.318;2023-02-19T15:20:18;2;2;
47810;PMS5003;33575;52.600;7.318;2023-02-19T15:22:48;1;1;
47810;PMS5003;33575;52.600;7.318;2023-02-19T15:25:20;2;1;
47810;PMS5003;33575;52.600;7.318;2023-02-19T15:27:49;1;1;
47810;PMS5003;33575;52.600;7.318;2023-02-19T15:30:21;2;1;
47810;PMS5003;33575;52.600;7.318;2023-02-19T15:32:51;1;1;
47810;PMS5003;33575;52.600;7.318;2023-02-19T15:35:21;1;1;
47810;PMS5003;33575;52.600;7.318;2023-02-19T15:37:52;2;2;
47810;PMS5003;33575;52.600;7.318;2023-02-19T15:40:23;3;3;
47810;PMS5003;33575;52.600;7.318;2023-02-19T15:42:53;3;1;
47810;PMS5003;33575;52.600;7.318;2023-02-19T15:45:24;2;2;
47810;PMS5003;33575;52.600;7.318;2023-02-19T15:47:54;1;1;
47810;PMS5003;33575;52.600;7.318;2023-02-19T15:50:25;1;1;
47810;PMS5003;33575;52.600;7.318;2023-02-19T15:52:56;2;2;
47810;PMS5003;33575;52.600;7.318;2023-02-19T15:55:27;4;3;
47810;PMS5003;33575;52.600;7.318;2023-02-19T15:57:59;3;2;
47810;PMS5003;33575;52.600;7.318;2023-02-19T16:00:29;4;3;
47810;PMS5003;33575;52.600;7.318;2023-02-19T16:02:58;5;5;
47810;PMS5003;33575;52.600;7.318;2023-02-19T16:05:28;5;4;
47810;PMS5003;33575;52.600;7.318;2023-02-19T16:10:29;2;2;
47810;PMS5003;33575;52.600;7.318;2023-02-19T16:13:01;2;2;
47810;PMS5003;33575;52.600;7.318;2023-02-19T16:15:31;2;2;
47810;PMS5003;33575;52.600;7.318;2023-02-19T16:18:01;2;2;
47810;PMS5003;33575;52.600;7.318;2023-02-19T16:20:32;3;3;
47810;PMS5003;33575;52.600;7.318;2023-02-19T16:23:08;3;3;
47810;PMS5003;33575;52.600;7.318;2023-02-19T16:25:35;4;2;
47810;PMS5003;33575;52.600;7.318;2023-02-19T16:30:35;3;3;
47810;PMS5003;33575;52.600;7.318;2023-02-19T16:35:36;2;2;
47810;PMS5003;33575;52.600;7.318;2023-02-19T16:38:10;1;1;
47810;PMS5003;33575;52.600;7.318;2023-02-19T16:45:39;2;2;
47810;PMS5003;33575;52.600;7.318;2023-02-19T16:48:09;2;2;
47810;PMS5003;33575;52.600;7.318;2023-02-19T16:50:39;2;2;
47810;PMS5003;33575;52.600;7.318;2023-02-19T16:53:13;2;2;
47810;PMS5003;33575;52.600;7.318;2023-02-19T16:55:40;3;2;
47810;PMS5003;33575;52.600;7.318;2023-02-19T16:58:11;3;3;
47810;PMS5003;33575;52.600;7.318;2023-02-19T17:00:42;3;3;
47810;PMS5003;33575;52.600;7.318;2023-02-19T17:03:13;2;2;
47810;PMS5003;33575;52.600;7.318;2023-02-19T17:05:43;2;2;
47810;PMS5003;33575;52.600;7.318;2023-02-19T17:10:44;2;2;
47810;PMS5003;33575;52.600;7.318;2023-02-19T17:13:15;3;3;
47810;PMS5003;33575;52.600;7.318;2023-02-19T17:15:45;3;3;
47810;PMS5003;33575;52.600;7.318;2023-02-19T17:18:16;3;2;
47810;PMS5003;33575;52.600;7.318;2023-02-19T17:20:47;2;2;
47810;PMS5003;33575;52.600;7.318;2023-02-19T17:23:17;7;7;
47810;PMS5003;33575;52.600;7.318;2023-02-19T17:25:48;4;4;
47810;PMS5003;33575;52.600;7.318;2023-02-19T17:28:18;5;5;
47810;PMS5003;33575;52.600;7.318;2023-02-19T17:30:49;8;7;
47810;PMS5003;33575;52.600;7.318;2023-02-19T17:33:20;6;6;
47810;PMS5003;33575;52.600;7.318;2023-02-19T17:35:50;9;7;
47810;PMS5003;33575;52.600;7.318;2023-02-19T17:38:21;6;6;
47810;PMS5003;33575;52.600;7.318;2023-02-19T17:40:52;8;7;
47810;PMS5003;33575;52.600;7.318;2023-02-19T17:43:23;8;8;
47810;PMS5003;33575;52.600;7.318;2023-02-19T17:45:53;7;7;
47810;PMS5003;33575;52.600;7.318;2023-02-19T17:48:23;5;5;